Terminal Aerodrome Forecast
Issued by NWS

Home | Current Version | Previous Version | Text Only | Print | Product List | Glossary On
Versions: 1 2 3 4 5 6 7 8 9 10 11 12 13 14 15 16 17 18 19 20 21 22 23
000
FTUS46 KOTX 311919 AAB
TAFCOE
TAF AMD
KCOE 311919Z 3119/0118 VRB03KT P6SM SCT090 OVC150
     FM312100 21010KT P6SM VCSH BKN040 OVC070
     FM010100 21006KT 6SM -RA BR SCT008 OVC035
     FM010900 01004KT 4SM BR BKN012
     FM011200 VRB03KT 1SM BR OVC009
      AMD LTD TO CLD AND VIS=

USA.gov is the U.S. government's official web portal to all federal, state and local government web resources and services.